Time;durP1;ratioP1;P1;durP2;ratioP2;P2;SDS_P1;SDS_P2;PMS_P1;PMS_P2;Temp;Humidity;BMP_temperature;BMP_pressure;BME280_temperature;BME280_humidity;BME280_pressure;Samples;Min_cycle;Max_cycle;Signal;HPM_P1;HPM_P2
2021/08/27 00:01:08;;;;;;;11.45;7.82;;;;;;;18.38;53.38;95076.72;5032365;28;20037;-76
2021/08/27 00:03:34;;;;;;;9.43;7.97;;;;;;;18.45;53.36;95076.84;5030511;28;20406;-77
2021/08/27 00:05:59;;;;;;;11.32;8.32;;;;;;;17.49;55.91;95090.91;5029422;28;20049;-77
2021/08/27 00:08:24;;;;;;;12.98;8.10;;;;;;;17.43;56.02;95076.94;5045581;28;20053;-75
2021/08/27 00:10:50;;;;;;;11.32;7.30;;;;;;;17.25;57.26;95089.16;5031121;28;20679;-77
2021/08/27 00:13:15;;;;;;;8.70;7.63;;;;;;;16.99;57.53;95079.72;5032610;28;20426;-76
2021/08/27 00:15:40;;;;;;;8.85;7.63;;;;;;;17.30;57.03;95072.78;5045827;28;20037;-76
2021/08/27 00:18:06;;;;;;;9.65;7.65;;;;;;;17.72;56.21;95081.06;5030488;28;20077;-76
2021/08/27 00:20:31;;;;;;;8.52;7.72;;;;;;;17.33;56.78;95067.50;5029937;28;20048;-76
2021/08/27 00:22:58;;;;;;;8.63;7.32;;;;;;;17.29;57.27;95071.22;5030513;28;20033;-75
2021/08/27 00:25:24;;;;;;;8.65;7.53;;;;;;;17.63;56.19;95078.56;5032341;28;20029;-77
2021/08/27 00:27:49;;;;;;;10.63;7.82;;;;;;;17.19;57.54;95063.69;5030404;28;20029;-76
2021/08/27 00:30:15;;;;;;;10.00;8.30;;;;;;;17.76;55.77;95065.81;5030327;28;20041;-74
2021/08/27 00:32:40;;;;;;;9.65;7.90;;;;;;;18.16;54.75;95060.09;5045727;28;20038;-76
2021/08/27 00:35:06;;;;;;;8.98;8.07;;;;;;;18.49;53.48;95076.91;5029624;28;20514;-76
2021/08/27 00:37:32;;;;;;;10.27;8.32;;;;;;;18.65;53.11;95066.81;5045661;28;20025;-76
2021/08/27 00:39:58;;;;;;;9.55;8.27;;;;;;;18.79;52.51;95055.56;5032228;28;20044;-75
2021/08/27 00:42:23;;;;;;;9.98;8.40;;;;;;;18.98;52.14;95073.59;5045584;28;20479;-76
2021/08/27 00:44:49;;;;;;;10.95;8.57;;;;;;;18.99;52.11;95067.84;5030222;28;20460;-77
2021/08/27 00:47:15;;;;;;;14.18;8.75;;;;;;;18.98;52.19;95076.28;5044369;28;20402;-78
2021/08/27 00:49:40;;;;;;;10.55;8.43;;;;;;;18.94;52.37;95068.94;5029920;28;20065;-76
2021/08/27 00:52:08;;;;;;;19.48;9.88;;;;;;;18.92;52.44;95073.09;5032179;28;20541;-76
2021/08/27 00:54:34;;;;;;;10.27;8.70;;;;;;;18.98;51.88;95055.50;5028654;28;20029;-76
2021/08/27 00:56:59;;;;;;;12.02;8.95;;;;;;;19.02;51.91;95056.34;5044118;28;20042;-76
2021/08/27 00:59:24;;;;;;;11.18;9.73;;;;;;;19.03;51.58;95040.94;5030073;28;20052;-76
2021/08/27 01:01:50;;;;;;;11.73;8.50;;;;;;;19.02;51.81;95055.56;5029913;28;20392;-77
2021/08/27 01:04:15;;;;;;;9.57;8.38;;;;;;;19.01;51.83;95060.19;5046561;28;20016;-78
2021/08/27 01:06:45;;;;;;;10.15;8.38;;;;;;;18.22;54.12;95068.72;5029805;28;20041;-76
2021/08/27 01:09:34;;;;;;;9.60;8.40;;;;;;;17.87;55.32;95077.59;5029673;28;20091;-76
2021/08/27 01:12:12;;;;;;;10.82;7.95;;;;;;;18.31;54.70;95082.72;5045073;28;20048;-76
2021/08/27 01:14:52;;;;;;;10.32;8.27;;;;;;;18.05;54.94;95069.88;5028970;28;20422;-72
2021/08/27 01:17:27;;;;;;;11.23;8.18;;;;;;;18.96;52.86;95074.72;5029354;28;20168;-75
2021/08/27 01:20:03;;;;;;;10.07;7.50;;;;;;;18.43;53.37;95081.81;5029081;28;20411;-74
2021/08/27 01:23:00;;;;;;;10.52;7.70;;;;;;;18.32;53.22;95051.19;5021327;28;20364;-75
2021/08/27 01:25:30;;;;;;;7.75;7.05;;;;;;;18.86;52.33;95080.72;5027327;28;20391;-75
2021/08/27 01:27:57;;;;;;;8.30;6.50;;;;;;;19.25;51.58;95059.03;5030674;28;20220;-75
2021/08/27 01:30:49;;;;;;;7.68;6.88;;;;;;;19.17;51.66;95079.69;5029561;28;20029;-75
2021/08/27 01:33:17;;;;;;;9.40;7.05;;;;;;;18.91;52.02;95085.03;5020097;28;20400;-75
2021/08/27 01:35:49;;;;;;;7.38;6.68;;;;;;;17.95;54.80;95086.59;5028246;28;20045;-75
2021/08/27 01:38:16;;;;;;;7.90;7.18;;;;;;;18.40;53.65;95085.19;5027975;28;20033;-76
2021/08/27 01:40:48;;;;;;;7.03;6.35;;;;;;;18.26;54.04;95090.28;5029281;28;20048;-76
2021/08/27 01:43:15;;;;;;;8.32;7.30;;;;;;;17.47;55.84;95079.72;5030895;28;20021;-76
2021/08/27 01:45:44;;;;;;;8.13;6.75;;;;;;;17.60;55.68;95091.91;5028690;28;20033;-75
2021/08/27 01:48:10;;;;;;;7.35;6.45;;;;;;;17.36;56.00;95082.94;5028867;28;20041;-76
2021/08/27 01:50:36;;;;;;;8.68;7.28;;;;;;;17.36;56.65;95099.06;5028327;28;20041;-75
2021/08/27 01:53:03;;;;;;;18.20;8.32;;;;;;;17.05;57.79;95086.41;5028525;28;20033;-75
2021/08/27 01:55:29;;;;;;;11.32;9.13;;;;;;;16.68;59.72;95093.06;5028496;28;20026;-75
2021/08/27 01:57:55;;;;;;;14.35;11.55;;;;;;;16.64;60.72;95101.81;5046021;28;20025;-77
2021/08/27 02:00:22;;;;;;;21.90;13.30;;;;;;;16.05;62.45;95113.22;5028700;28;20034;-74
2021/08/27 02:02:49;;;;;;;20.95;13.02;;;;;;;16.38;61.86;95088.06;5028134;28;20042;-77
2021/08/27 02:05:16;;;;;;;24.23;14.20;;;;;;;16.34;62.01;95092.56;5027136;28;20064;-74
2021/08/27 02:07:44;;;;;;;26.58;13.57;;;;;;;16.40;61.84;95106.53;5028371;28;20021;-76
2021/08/27 02:10:10;;;;;;;25.20;14.25;;;;;;;16.56;62.52;95112.72;5030912;28;20041;-74
2021/08/27 02:12:35;;;;;;;23.63;13.88;;;;;;;16.37;62.60;95100.69;5029027;28;20444;-74
2021/08/27 02:15:02;;;;;;;22.58;13.98;;;;;;;17.11;60.60;95097.69;5027400;28;20033;-74
2021/08/27 02:17:29;;;;;;;27.20;14.95;;;;;;;16.93;60.92;95105.28;5028772;28;20470;-75
2021/08/27 02:19:55;;;;;;;27.15;15.45;;;;;;;16.90;60.54;95092.53;5028412;28;20041;-75
2021/08/27 02:22:22;;;;;;;21.88;14.38;;;;;;;16.90;60.54;95089.88;5030519;28;20025;-75
2021/08/27 02:24:58;;;;;;;20.58;13.70;;;;;;;17.28;60.02;95113.44;5045572;28;20030;-73
2021/08/27 02:27:23;;;;;;;25.55;14.52;;;;;;;16.97;60.96;95108.06;5032181;28;20816;-74
2021/08/27 02:29:52;;;;;;;24.05;14.63;;;;;;;17.12;60.44;95115.34;5032483;28;20037;-75
2021/08/27 02:32:19;;;;;;;25.13;14.73;;;;;;;16.80;60.65;95106.47;5032527;28;20449;-75
2021/08/27 02:34:45;;;;;;;25.50;15.77;;;;;;;17.73;58.91;95111.47;5030630;28;21253;-75
2021/08/27 02:37:15;;;;;;;31.33;16.10;;;;;;;17.39;59.29;95108.34;5033692;28;20052;-74
2021/08/27 02:39:40;;;;;;;26.95;15.65;;;;;;;17.05;59.99;95102.53;5032168;28;20038;-74
2021/08/27 02:42:06;;;;;;;27.35;15.52;;;;;;;17.46;59.64;95102.38;5031964;28;20446;-74
2021/08/27 02:44:32;;;;;;;34.42;18.13;;;;;;;17.47;59.37;95088.56;5031935;28;20037;-74
2021/08/27 02:46:57;;;;;;;35.85;17.33;;;;;;;17.26;59.34;95088.84;5032071;28;20545;-75
2021/08/27 02:49:22;;;;;;;39.83;19.95;;;;;;;17.77;59.19;95115.03;5033989;28;20108;-74
2021/08/27 02:52:13;;;;;;;37.03;17.45;;;;;;;17.22;60.04;95106.78;5030161;28;20021;-74
2021/08/27 02:55:03;;;;;;;34.92;17.90;;;;;;;17.07;60.55;95065.34;5031853;28;20088;-72
2021/08/27 02:57:31;;;;;;;36.90;19.52;;;;;;;17.66;59.69;95104.00;5031735;28;20038;-74
2021/08/27 03:00:00;;;;;;;37.00;19.15;;;;;;;17.18;61.54;95110.50;5031599;28;20045;-74
2021/08/27 03:02:27;;;;;;;52.42;20.38;;;;;;;17.31;60.82;95120.06;5031578;28;20049;-74
2021/08/27 03:05:05;;;;;;;52.08;22.88;;;;;;;18.04;59.47;95092.53;5046092;28;20036;-73
2021/08/27 03:07:31;;;;;;;55.40;23.45;;;;;;;17.60;59.99;95076.56;5023868;28;20051;-73
2021/08/27 03:10:07;;;;;;;57.35;24.90;;;;;;;17.54;60.14;95087.94;5033364;28;20030;-73
2021/08/27 03:12:50;;;;;;;58.72;24.50;;;;;;;17.20;61.25;95100.19;5031179;28;20034;-73
2021/08/27 03:15:51;;;;;;;61.25;24.23;;;;;;;17.73;59.11;95090.72;5031087;28;20095;-72
2021/08/27 03:18:22;;;;;;;51.42;22.00;;;;;;;17.58;59.99;95086.91;5031900;28;20120;-73
2021/08/27 03:20:53;;;;;;;41.28;19.65;;;;;;;17.32;60.99;95097.41;5045803;28;20042;-73
2021/08/27 03:23:20;;;;;;;52.13;22.52;;;;;;;17.32;60.19;95092.03;5031012;28;20049;-71
2021/08/27 03:25:47;;;;;;;43.85;20.65;;;;;;;17.12;60.98;95093.84;5030707;28;20080;-73
2021/08/27 03:28:18;;;;;;;41.40;19.70;;;;;;;17.06;61.90;95084.50;5033131;28;20482;-72
2021/08/27 03:30:47;;;;;;;44.70;21.27;;;;;;;16.70;61.97;95075.50;5031164;28;20030;-73
2021/08/27 03:33:13;;;;;;;51.45;21.98;;;;;;;17.28;60.59;95067.75;5030948;28;20033;-73
2021/08/27 03:35:39;;;;;;;52.83;23.35;;;;;;;17.16;60.69;95078.59;5029077;28;20038;-72
2021/08/27 03:38:06;;;;;;;53.78;21.85;;;;;;;17.03;61.81;95074.44;5030487;28;20041;-73
2021/08/27 03:40:32;;;;;;;40.53;19.63;;;;;;;17.04;61.37;95090.19;5030465;28;20041;-73
2021/08/27 03:43:00;;;;;;;45.90;20.20;;;;;;;17.11;60.84;95078.88;5032664;28;20435;-73
2021/08/27 03:45:27;;;;;;;45.78;20.40;;;;;;;16.63;62.68;95054.63;5045729;28;20064;-74
2021/08/27 03:47:52;;;;;;;43.70;21.48;;;;;;;16.76;61.70;95092.16;5030845;28;20458;-73
2021/08/27 03:50:19;;;;;;;45.45;20.55;;;;;;;17.32;61.16;95078.59;5030397;28;20040;-72
2021/08/27 03:52:46;;;;;;;44.97;20.67;;;;;;;16.75;61.37;95069.13;5030604;28;20113;-73
2021/08/27 03:55:14;;;;;;;37.80;19.13;;;;;;;16.78;62.11;95096.06;5032324;28;20028;-73
2021/08/27 03:57:42;;;;;;;41.60;20.27;;;;;;;16.60;62.80;95098.25;5030439;28;20067;-72
2021/08/27 04:00:08;;;;;;;57.97;23.92;;;;;;;17.25;62.11;95094.53;5028990;28;20498;-73
2021/08/27 04:02:34;;;;;;;60.63;25.33;;;;;;;16.90;62.76;95111.34;5030162;28;20041;-75
2021/08/27 04:05:12;;;;;;;50.10;22.63;;;;;;;15.94;64.78;95112.13;5029735;28;20091;-74
2021/08/27 04:07:39;;;;;;;57.45;23.20;;;;;;;15.50;67.05;95117.25;5030182;28;20090;-71
2021/08/27 04:10:05;;;;;;;73.38;27.38;;;;;;;16.72;63.97;95115.47;5032435;28;20085;-72
2021/08/27 04:12:31;;;;;;;74.75;28.17;;;;;;;16.38;64.39;95104.19;5028833;28;20091;-71
2021/08/27 04:14:56;;;;;;;87.28;29.48;;;;;;;16.68;63.83;95114.56;5029885;28;20033;-72
2021/08/27 04:17:21;;;;;;;77.55;27.10;;;;;;;15.92;65.38;95125.09;5029853;28;20084;-70
2021/08/27 04:19:47;;;;;;;99.13;32.47;;;;;;;16.32;65.20;95121.63;5028617;28;20050;-70
2021/08/27 04:22:12;;;;;;;56.22;23.13;;;;;;;15.43;66.99;95105.53;5031484;28;20026;-70
2021/08/27 04:24:37;;;;;;;42.90;20.13;;;;;;;15.51;66.29;95115.38;5028889;28;20071;-70
2021/08/27 04:27:03;;;;;;;63.00;23.20;;;;;;;15.42;67.02;95123.53;5029896;28;20061;-70
2021/08/27 04:29:28;;;;;;;52.45;21.45;;;;;;;15.70;65.92;95122.88;5029873;28;20042;-70
2021/08/27 04:31:56;;;;;;;43.28;18.75;;;;;;;15.54;66.29;95120.06;5029877;28;20026;-69
2021/08/27 04:34:21;;;;;;;44.00;19.23;;;;;;;15.69;66.15;95108.69;5029982;28;20479;-70
2021/08/27 04:36:47;;;;;;;56.13;21.00;;;;;;;16.37;64.01;95118.69;5029102;28;20049;-70
2021/08/27 04:39:12;;;;;;;44.33;19.50;;;;;;;16.20;64.11;95124.34;5029346;28;20038;-70
2021/08/27 04:41:37;;;;;;;55.42;21.65;;;;;;;16.78;62.70;95111.41;5029322;28;20407;-70
2021/08/27 04:44:03;;;;;;;52.58;22.13;;;;;;;16.49;63.92;95110.63;5029365;28;20130;-71
2021/08/27 04:46:28;;;;;;;56.95;22.00;;;;;;;16.44;63.96;95118.91;5029157;28;20029;-71
2021/08/27 04:48:54;;;;;;;43.47;19.67;;;;;;;15.98;64.01;95112.22;5029919;28;20026;-71
2021/08/27 04:51:19;;;;;;;61.67;23.85;;;;;;;17.02;62.75;95113.97;5029032;28;20447;-70
2021/08/27 04:53:44;;;;;;;29.05;14.70;;;;;;;16.35;63.09;95118.28;5028207;28;20618;-70
2021/08/27 04:56:10;;;;;;;26.80;14.27;;;;;;;16.30;63.19;95123.88;5027749;28;20037;-70
2021/08/27 04:58:35;;;;;;;49.20;19.13;;;;;;;16.91;62.34;95098.69;5028115;28;20068;-70
2021/08/27 05:01:00;;;;;;;52.97;20.58;;;;;;;17.79;61.57;95096.59;5031241;28;20030;-70
2021/08/27 05:03:26;;;;;;;34.97;17.52;;;;;;;17.88;59.91;95102.59;5029215;28;20033;-71
2021/08/27 05:05:51;;;;;;;29.58;15.68;;;;;;;16.83;61.42;95109.25;5028412;28;20048;-70
2021/08/27 05:08:16;;;;;;;47.42;19.83;;;;;;;17.84;60.63;95101.72;5028842;28;20033;-70
2021/08/27 05:10:42;;;;;;;52.17;20.88;;;;;;;17.68;60.56;95102.50;5029138;28;20029;-70
2021/08/27 05:13:07;;;;;;;53.55;23.30;;;;;;;16.94;61.34;95101.50;5029652;28;20028;-70
2021/08/27 05:15:32;;;;;;;65.70;24.65;;;;;;;17.03;61.30;95114.75;5028708;28;20130;-70
2021/08/27 05:17:58;;;;;;;61.67;23.95;;;;;;;16.21;63.57;95129.38;5029155;28;20683;-70
2021/08/27 05:20:23;;;;;;;79.43;27.27;;;;;;;16.79;63.56;95115.69;5027609;28;20452;-78
2021/08/27 05:22:48;;;;;;;72.50;27.83;;;;;;;16.69;62.93;95118.81;5030960;28;20092;-80
2021/08/27 05:25:14;;;;;;;73.90;29.70;;;;;;;17.12;61.38;95126.88;5032721;28;20036;-80
2021/08/27 05:27:39;;;;;;;72.32;29.45;;;;;;;17.12;62.70;95109.97;5029930;28;20041;-79
2021/08/27 05:30:13;;;;;;;70.28;28.17;;;;;;;17.02;61.88;95122.03;5028514;28;20057;-72
2021/08/27 05:32:38;;;;;;;60.65;27.23;;;;;;;16.24;64.22;95131.41;5027846;28;20610;-69
2021/08/27 05:35:04;;;;;;;73.55;28.30;;;;;;;16.31;64.19;95145.00;5028806;28;20041;-72
2021/08/27 05:37:30;;;;;;;71.32;29.30;;;;;;;16.72;63.09;95123.53;5029980;28;20029;-75
2021/08/27 05:39:57;;;;;;;79.57;29.80;;;;;;;16.93;63.14;95142.13;5024405;28;20472;-74
2021/08/27 05:42:22;;;;;;;70.20;27.15;;;;;;;16.20;64.82;95143.16;5029366;28;20071;-76
2021/08/27 05:44:48;;;;;;;59.70;25.65;;;;;;;15.64;66.51;95145.66;5029208;28;20084;-76
2021/08/27 05:47:13;;;;;;;68.00;27.63;;;;;;;15.88;65.82;95155.63;5029325;28;20045;-75
2021/08/27 05:49:38;;;;;;;67.13;27.02;;;;;;;15.88;65.52;95144.88;5029657;28;20051;-74
2021/08/27 05:52:04;;;;;;;73.63;26.67;;;;;;;15.73;66.68;95152.47;5046185;28;20507;-76
2021/08/27 05:54:30;;;;;;;66.22;27.42;;;;;;;15.81;66.67;95154.25;5028776;28;20372;-75
2021/08/27 05:56:56;;;;;;;68.55;27.38;;;;;;;16.02;66.44;95151.47;5027974;28;20087;-69
2021/08/27 05:59:21;;;;;;;74.00;29.33;;;;;;;16.49;65.19;95155.50;5029041;28;20045;-69
2021/08/27 06:01:46;;;;;;;76.03;29.92;;;;;;;16.08;65.88;95147.41;5032373;28;20503;-70
2021/08/27 06:04:13;;;;;;;81.93;30.73;;;;;;;16.98;62.78;95156.06;5034404;28;20034;-69
2021/08/27 06:06:38;;;;;;;81.57;30.40;;;;;;;16.49;64.70;95166.22;5030499;28;20509;-69
2021/08/27 06:09:05;;;;;;;76.72;30.50;;;;;;;17.26;63.34;95164.09;5032121;28;20046;-69
2021/08/27 06:11:35;;;;;;;62.05;27.50;;;;;;;16.90;62.44;95162.41;5032182;28;20056;-69
2021/08/27 06:14:00;;;;;;;66.57;27.20;;;;;;;16.22;64.50;95140.88;5047631;28;20036;-69
2021/08/27 06:16:26;;;;;;;65.45;25.60;;;;;;;16.03;65.62;95163.75;5031772;28;20112;-70
2021/08/27 06:18:51;;;;;;;63.38;27.55;;;;;;;16.61;64.49;95164.28;5034140;28;20033;-70
2021/08/27 06:21:16;;;;;;;71.75;26.70;;;;;;;16.14;65.44;95158.69;5031627;28;20044;-69
2021/08/27 06:23:42;;;;;;;59.17;25.55;;;;;;;16.56;64.47;95163.72;5031634;28;20069;-69
2021/08/27 06:26:07;;;;;;;58.90;25.55;;;;;;;16.18;65.89;95159.59;5031697;28;20072;-69
2021/08/27 06:28:32;;;;;;;65.28;26.13;;;;;;;16.54;64.62;95166.78;5032157;28;20026;-69
2021/08/27 06:30:58;;;;;;;54.30;24.58;;;;;;;16.54;64.39;95177.50;5033808;28;20108;-69
2021/08/27 06:33:23;;;;;;;61.05;24.80;;;;;;;16.67;64.25;95169.41;5031835;28;20049;-69
2021/08/27 06:35:48;;;;;;;45.15;21.75;;;;;;;17.02;62.36;95177.69;5030995;28;20099;-70
2021/08/27 06:38:24;;;;;;;39.53;20.05;;;;;;;16.24;64.74;95184.28;5031864;28;20459;-69
2021/08/27 06:41:00;;;;;;;39.15;20.00;;;;;;;16.34;64.70;95176.56;5031557;28;20076;-69
2021/08/27 06:43:27;;;;;;;34.63;17.88;;;;;;;15.91;65.62;95192.47;5031466;28;20022;-70
2021/08/27 06:45:55;;;;;;;41.40;19.65;;;;;;;17.03;63.68;95190.75;5031980;28;20352;-69
2021/08/27 06:48:20;;;;;;;29.83;17.02;;;;;;;16.02;64.72;95177.47;5031493;28;20074;-69
2021/08/27 06:50:46;;;;;;;28.00;17.35;;;;;;;16.57;63.47;95195.59;5031003;28;20447;-69
2021/08/27 06:53:11;;;;;;;32.13;18.60;;;;;;;17.78;61.03;95184.63;5031484;28;20662;-69
2021/08/27 06:55:37;;;;;;;26.45;16.63;;;;;;;17.75;61.11;95171.06;5030884;28;20479;-70
2021/08/27 06:58:03;;;;;;;27.10;15.88;;;;;;;17.46;60.58;95181.13;5033306;28;20349;-69
2021/08/27 07:00:29;;;;;;;25.52;13.70;;;;;;;17.42;61.28;95177.56;5031292;28;20049;-70
2021/08/27 07:02:54;;;;;;;18.17;12.38;;;;;;;16.46;63.70;95197.22;5030998;28;20052;-70
2021/08/27 07:05:20;;;;;;;20.98;13.43;;;;;;;17.53;61.73;95185.88;5029626;28;20041;-69
2021/08/27 07:07:45;;;;;;;20.15;13.27;;;;;;;17.27;61.28;95189.84;5030272;28;20041;-69
2021/08/27 07:10:11;;;;;;;18.60;12.68;;;;;;;17.06;62.78;95186.63;5032936;28;20451;-69
2021/08/27 07:12:36;;;;;;;15.70;11.85;;;;;;;16.94;63.09;95194.72;5030942;28;20041;-70
2021/08/27 07:15:03;;;;;;;21.67;12.90;;;;;;;18.05;61.36;95187.53;5030735;28;20076;-72
2021/08/27 07:17:28;;;;;;;16.55;11.70;;;;;;;17.72;59.94;95201.34;5030780;28;20034;-71
2021/08/27 07:19:54;;;;;;;16.00;12.43;;;;;;;18.06;60.31;95197.94;5029811;28;20048;-70
2021/08/27 07:22:19;;;;;;;12.15;10.68;;;;;;;18.00;59.29;95187.78;5032411;28;20479;-71
2021/08/27 07:24:44;;;;;;;12.43;9.40;;;;;;;18.00;59.35;95196.66;5030404;28;20041;-70
2021/08/27 07:27:10;;;;;;;9.30;7.88;;;;;;;19.22;56.66;95192.66;5030581;28;20080;-71
2021/08/27 07:29:37;;;;;;;8.90;7.57;;;;;;;19.02;57.46;95201.91;5030740;28;20046;-71
2021/08/27 07:32:03;;;;;;;7.22;6.53;;;;;;;19.31;55.99;95188.97;5030819;28;20049;-72
2021/08/27 07:34:28;;;;;;;10.90;7.20;;;;;;;19.49;55.90;95180.03;5030458;28;20025;-70
2021/08/27 07:36:53;;;;;;;5.75;5.22;;;;;;;19.38;54.81;95194.47;5032252;28;20021;-70
2021/08/27 07:39:19;;;;;;;5.80;5.20;;;;;;;19.45;56.19;95198.09;5030491;28;20033;-71
2021/08/27 07:41:44;;;;;;;5.50;5.00;;;;;;;19.32;55.17;95174.34;5030860;28;20359;-72
2021/08/27 07:44:10;;;;;;;4.40;3.92;;;;;;;18.92;55.70;95194.41;5030432;28;20113;-69
2021/08/27 07:46:37;;;;;;;6.22;4.45;;;;;;;18.23;58.47;95191.41;5030744;28;20468;-69
2021/08/27 07:49:02;;;;;;;7.15;5.10;;;;;;;19.10;55.80;95195.53;5032652;28;20025;-69
2021/08/27 07:51:28;;;;;;;5.53;4.50;;;;;;;19.72;55.21;95195.47;5030000;28;20125;-70
2021/08/27 07:53:53;;;;;;;8.02;4.80;;;;;;;18.40;58.19;95191.00;5029928;28;20041;-71
2021/08/27 07:56:18;;;;;;;6.18;4.10;;;;;;;18.85;57.38;95208.53;5029966;28;20029;-71
2021/08/27 07:58:45;;;;;;;4.60;4.20;;;;;;;18.87;55.85;95217.03;5030056;28;20078;-70
2021/08/27 08:01:10;;;;;;;4.22;3.83;;;;;;;19.17;57.04;95214.53;5031816;28;20029;-69
2021/08/27 08:03:36;;;;;;;4.15;3.40;;;;;;;18.18;58.70;95222.06;5029881;28;20507;-69
2021/08/27 08:06:01;;;;;;;3.33;3.08;;;;;;;18.31;59.75;95216.56;5029367;28;20069;-70
2021/08/27 08:08:26;;;;;;;6.70;3.42;;;;;;;17.02;61.21;95226.03;5030164;28;20376;-69
2021/08/27 08:10:52;;;;;;;4.93;3.28;;;;;;;17.50;60.20;95211.56;5029795;28;20091;-70
2021/08/27 08:13:17;;;;;;;3.47;2.85;;;;;;;17.67;59.91;95205.84;5032017;28;20152;-70
2021/08/27 08:15:42;;;;;;;4.35;3.40;;;;;;;19.44;55.97;95218.09;5029325;28;20148;-71
2021/08/27 08:18:08;;;;;;;3.30;2.88;;;;;;;18.15;57.71;95206.63;5045135;28;20072;-71
2021/08/27 08:20:33;;;;;;;2.83;2.63;;;;;;;17.61;58.93;95223.38;5029747;28;20030;-69
2021/08/27 08:22:59;;;;;;;3.72;2.92;;;;;;;17.17;59.81;95221.84;5027239;28;20432;-69
2021/08/27 08:25:24;;;;;;;3.78;3.00;;;;;;;17.17;59.61;95219.94;5031122;28;20029;-69
2021/08/27 08:27:50;;;;;;;3.67;3.13;;;;;;;17.56;59.66;95222.88;5029451;28;20125;-70
2021/08/27 08:30:16;;;;;;;6.53;3.38;;;;;;;17.57;60.47;95229.81;5029312;28;20049;-70
2021/08/27 08:32:41;;;;;;;4.00;3.10;;;;;;;17.64;58.79;95232.66;5029433;28;20045;-70
2021/08/27 08:35:07;;;;;;;5.00;3.35;;;;;;;18.26;58.21;95214.16;5044402;28;20037;-70
2021/08/27 08:37:32;;;;;;;5.00;3.20;;;;;;;18.10;57.24;95223.03;5028554;28;20467;-70
2021/08/27 08:39:58;;;;;;;3.35;2.65;;;;;;;17.81;57.53;95221.59;5031144;28;20028;-70
2021/08/27 08:42:23;;;;;;;3.50;2.92;;;;;;;18.13;57.06;95221.56;5029233;28;20037;-70
2021/08/27 08:44:48;;;;;;;3.75;3.10;;;;;;;19.28;53.98;95235.50;5029343;28;20044;-70
2021/08/27 08:47:16;;;;;;;3.28;2.80;;;;;;;19.44;52.93;95230.81;5029114;28;20041;-70
2021/08/27 08:49:44;;;;;;;3.08;2.80;;;;;;;19.99;49.62;95221.38;5044613;28;20041;-70
2021/08/27 08:52:13;;;;;;;2.90;2.50;;;;;;;18.27;53.98;95218.41;5030604;28;20553;-70
2021/08/27 08:54:39;;;;;;;3.00;2.17;;;;;;;18.19;54.16;95210.16;5028887;28;20113;-72
2021/08/27 08:57:05;;;;;;;2.53;2.33;;;;;;;18.59;53.99;95217.19;5029166;28;20171;-73
2021/08/27 08:59:33;;;;;;;4.70;2.88;;;;;;;19.75;51.35;95237.94;5027574;28;20057;-72
2021/08/27 09:02:00;;;;;;;2.80;2.50;;;;;;;18.40;53.86;95217.94;5027292;28;20037;-71
2021/08/27 09:04:27;;;;;;;3.55;2.50;;;;;;;19.00;53.30;95236.53;5027317;28;20026;-72
2021/08/27 09:06:52;;;;;;;3.55;2.47;;;;;;;19.34;52.15;95204.41;5030311;28;20028;-72
2021/08/27 09:09:36;;;;;;;3.30;2.90;;;;;;;19.44;53.05;95230.81;5027203;28;20049;-70
2021/08/27 09:12:25;;;;;;;3.30;2.40;;;;;;;20.19;50.89;95216.66;5028603;28;20496;-70
2021/08/27 09:14:57;;;;;;;3.50;2.38;;;;;;;20.21;50.96;95227.84;5027176;28;20156;-72
2021/08/27 09:17:34;;;;;;;3.03;2.50;;;;;;;20.33;49.91;95226.13;5028428;28;20088;-72
2021/08/27 09:20:03;;;;;;;2.13;1.77;;;;;;;19.11;50.61;95228.66;5027705;28;20038;-70
2021/08/27 09:22:46;;;;;;;2.78;1.88;;;;;;;18.78;51.34;95229.13;5028344;28;20309;-70
2021/08/27 09:25:15;;;;;;;2.22;2.00;;;;;;;19.44;50.28;95233.50;5045449;28;20116;-72
2021/08/27 09:28:15;;;;;;;2.50;1.90;;;;;;;18.94;50.10;95186.75;5026101;28;20050;-71
2021/08/27 09:30:47;;;;;;;2.15;1.92;;;;;;;19.82;49.52;95232.66;5028292;28;20030;-72
2021/08/27 09:33:17;;;;;;;3.55;1.73;;;;;;;20.42;48.30;95191.50;5026577;28;20072;-74
2021/08/27 09:35:58;;;;;;;2.30;1.55;;;;;;;20.63;47.65;95191.81;5025763;28;20044;-73
2021/08/27 09:38:27;;;;;;;2.17;1.60;;;;;;;20.33;48.40;95180.19;5027762;28;20069;-74
2021/08/27 09:41:05;;;;;;;1.95;1.48;;;;;;;20.45;48.12;95194.25;5027949;28;20117;-73
2021/08/27 09:43:50;;;;;;;4.05;1.52;;;;;;;21.82;44.73;95200.06;5043896;28;20326;-72
2021/08/27 09:46:45;;;;;;;4.18;2.40;;;;;;;21.02;47.27;95232.06;5028378;28;20032;-72
2021/08/27 09:49:26;;;;;;;2.60;1.98;;;;;;;21.77;44.60;95201.19;5043723;28;20442;-75
2021/08/27 09:51:51;;;;;;;3.38;1.92;;;;;;;20.54;46.99;95215.63;5026731;28;20046;-73
2021/08/27 09:54:29;;;;;;;2.88;2.20;;;;;;;19.84;49.74;95216.88;5026156;28;20547;-73
2021/08/27 09:56:57;;;;;;;2.67;1.90;;;;;;;19.28;49.97;95197.75;5042974;28;20037;-73
2021/08/27 09:59:47;;;;;;;2.53;1.73;;;;;;;18.35;53.72;95212.03;5025993;28;20049;-73
2021/08/27 10:02:32;;;;;;;1.67;1.58;;;;;;;19.54;50.40;95237.53;5026716;28;20413;-73
2021/08/27 10:04:59;;;;;;;2.33;1.98;;;;;;;18.74;52.38;95212.91;5042396;28;20044;-73
2021/08/27 10:07:27;;;;;;;1.88;1.70;;;;;;;19.64;49.44;95169.50;5026080;28;20041;-71
2021/08/27 10:09:53;;;;;;;2.95;1.80;;;;;;;20.22;49.09;95218.63;5030049;28;20040;-71
2021/08/27 10:12:19;;;;;;;2.00;1.67;;;;;;;18.54;52.82;95190.53;5042879;28;20061;-71
2021/08/27 10:14:44;;;;;;;4.40;2.20;;;;;;;17.71;55.46;95186.31;5027560;28;20148;-72
2021/08/27 10:17:11;;;;;;;2.55;2.03;;;;;;;17.97;55.92;95239.66;5026851;28;20446;-74
2021/08/27 10:19:36;;;;;;;2.17;1.88;;;;;;;17.58;57.29;95253.66;5027841;28;20546;-72
2021/08/27 10:22:02;;;;;;;2.22;2.05;;;;;;;17.50;57.58;95198.09;5029667;28;20026;-73
2021/08/27 10:24:28;;;;;;;2.33;2.13;;;;;;;19.34;53.19;95210.59;5027894;28;20518;-73
2021/08/27 10:26:54;;;;;;;2.15;1.95;;;;;;;19.40;53.34;95217.28;5027468;28;20076;-73
2021/08/27 10:29:19;;;;;;;2.53;1.98;;;;;;;18.86;54.81;95234.34;5026722;28;20128;-71
2021/08/27 10:31:48;;;;;;;2.55;1.90;;;;;;;20.31;51.91;95190.56;5027829;28;20073;-72
2021/08/27 10:34:16;;;;;;;2.58;1.90;;;;;;;19.41;52.52;95185.69;5028548;28;20125;-73
2021/08/27 10:36:51;;;;;;;2.42;2.20;;;;;;;19.55;52.64;95242.59;5027241;28;20510;-72
2021/08/27 10:39:40;;;;;;;2.25;2.05;;;;;;;18.36;53.30;95183.97;5026356;28;20102;-71
2021/08/27 10:42:07;;;;;;;2.10;1.95;;;;;;;19.08;52.89;95188.91;5027652;28;20518;-68
2021/08/27 10:44:53;;;;;;;2.60;1.83;;;;;;;18.36;55.54;95240.53;5027213;28;20095;-68
2021/08/27 10:47:19;;;;;;;2.70;1.60;;;;;;;18.22;55.86;95235.63;5030320;28;20088;-66
2021/08/27 10:49:44;;;;;;;7.22;2.30;;;;;;;19.79;52.13;95229.91;5031585;28;22209;-70
2021/08/27 10:52:29;;;;;;;1.80;1.70;;;;;;;18.55;52.77;95204.78;5033272;28;20033;-76
2021/08/27 10:55:04;;;;;;;2.15;1.95;;;;;;;19.07;53.86;95228.56;5031732;28;20041;-74
2021/08/27 10:57:42;;;;;;;5.03;2.78;;;;;;;20.57;50.07;95203.31;5029576;28;20055;-71
2021/08/27 11:00:08;;;;;;;2.92;2.00;;;;;;;20.87;47.93;95230.34;5029711;28;20538;-69
2021/08/27 11:02:55;;;;;;;2.92;1.73;;;;;;;19.53;50.48;95234.06;5030838;28;20037;-66
2021/08/27 11:05:36;;;;;;;2.08;1.73;;;;;;;18.82;51.79;95206.53;5029269;28;20103;-70
2021/08/27 11:08:14;;;;;;;2.00;1.77;;;;;;;20.47;47.55;95212.81;5030319;28;20057;-81
2021/08/27 11:10:42;;;;;;;2.03;1.60;;;;;;;20.82;47.76;95222.53;5046024;28;20554;-73
2021/08/27 11:13:15;;;;;;;3.80;2.00;;;;;;;21.21;45.35;95229.22;5033729;28;20494;-74
2021/08/27 11:15:42;;;;;;;2.72;1.75;;;;;;;20.86;46.03;95232.25;5029794;28;20476;-69
2021/08/27 11:18:17;;;;;;;1.60;1.50;;;;;;;20.88;46.23;95227.28;5030425;28;20044;-71
2021/08/27 11:20:45;;;;;;;2.08;1.42;;;;;;;20.44;47.25;95227.03;5046218;28;20044;-71
2021/08/27 11:23:12;;;;;;;2.42;1.70;;;;;;;19.87;48.74;95223.50;5030709;28;20038;-71
2021/08/27 11:25:42;;;;;;;2.00;1.85;;;;;;;20.50;48.71;95228.31;5030506;28;20029;-78
2021/08/27 11:28:12;;;;;;;2.97;1.88;;;;;;;21.45;45.56;95227.19;5031907;28;20383;-66
2021/08/27 11:31:02;;;;;;;2.80;1.90;;;;;;;21.68;46.25;95216.94;5044876;28;20032;-67